createdAt,value
2018-02-09T00:00:01.002Z,1017.76
2018-02-09T00:01:01.019Z,1017.77
2018-02-09T00:02:01.032Z,1017.77
2018-02-09T00:03:01.050Z,1017.77
2018-02-09T00:04:01.170Z,1017.77
2018-02-09T00:05:01.089Z,1017.75
2018-02-09T00:06:01.152Z,1017.72
2018-02-09T00:07:01.117Z,1017.72
2018-02-09T00:08:01.131Z,1017.76
2018-02-09T00:09:01.151Z,1017.73
2018-02-09T00:10:01.175Z,1017.79
2018-02-09T00:11:01.184Z,1017.80
2018-02-09T00:12:01.203Z,1017.80
2018-02-09T00:13:01.223Z,1017.81
2018-02-09T00:14:01.242Z,1017.78
2018-02-09T00:15:01.260Z,1017.80
2018-02-09T00:16:01.281Z,1017.77
2018-02-09T00:17:01.286Z,1017.79
2018-02-09T00:18:01.312Z,1017.76
2018-02-09T00:19:01.321Z,1017.80
2018-02-09T00:20:01.349Z,1017.79
2018-02-09T00:21:01.369Z,1017.80
2018-02-09T00:22:01.373Z,1017.82
2018-02-09T00:23:01.392Z,1017.81
2018-02-09T00:24:01.436Z,1017.78
2018-02-09T00:25:01.435Z,1017.82
2018-02-09T00:26:01.458Z,1017.78
2018-02-09T00:27:01.463Z,1017.80
2018-02-09T00:28:01.482Z,1017.78
2018-02-09T00:29:01.493Z,1017.77
2018-02-09T00:30:01.527Z,1017.77
2018-02-09T00:31:01.531Z,1017.81
2018-02-09T00:32:01.547Z,1017.79
2018-02-09T00:33:01.566Z,1017.77
2018-02-09T00:34:01.578Z,1017.79
2018-02-09T00:35:01.608Z,1017.78
2018-02-09T00:36:01.619Z,1017.78
2018-02-09T00:37:01.633Z,1017.81
2018-02-09T00:38:01.663Z,1017.79
2018-02-09T00:39:01.669Z,1017.76
2018-02-09T00:40:01.684Z,1017.73
2018-02-09T00:41:01.707Z,1017.75
2018-02-09T00:42:01.719Z,1017.75
2018-02-09T00:43:01.741Z,1017.75
2018-02-09T00:44:01.749Z,1017.79
2018-02-09T00:45:01.778Z,1017.77
2018-02-09T00:46:01.786Z,1017.78
2018-02-09T00:47:01.806Z,1017.76
2018-02-09T00:48:01.825Z,1017.79
2018-02-09T00:49:01.838Z,1017.75
2018-02-09T00:50:01.854Z,1017.75
2018-02-09T00:51:01.872Z,1017.72
2018-02-09T00:52:01.889Z,1017.72
2018-02-09T00:53:01.906Z,1017.77
2018-02-09T00:54:01.921Z,1017.73
2018-02-09T00:55:01.945Z,1017.71
2018-02-09T00:56:01.961Z,1017.72
2018-02-09T00:57:01.980Z,1017.74
2018-02-09T00:58:01.996Z,1017.75
2018-02-09T00:59:02.042Z,1017.72
2018-02-09T01:00:02.083Z,1017.71
2018-02-09T01:01:02.041Z,1017.73
2018-02-09T01:02:02.062Z,1017.70
2018-02-09T01:03:02.075Z,1017.73
2018-02-09T01:04:02.092Z,1017.73
2018-02-09T01:05:02.124Z,1017.67
2018-02-09T01:06:02.150Z,1017.70
2018-02-09T01:07:02.144Z,1017.70
2018-02-09T01:08:02.170Z,1017.67
2018-02-09T01:09:02.180Z,1017.67
2018-02-09T01:10:02.189Z,1017.67
2018-02-09T01:11:02.227Z,1017.69
2018-02-09T01:12:02.223Z,1017.69
2018-02-09T01:13:02.244Z,1017.67
2018-02-09T01:14:02.259Z,1017.65
2018-02-09T01:15:02.280Z,1017.65
2018-02-09T01:16:02.296Z,1017.67
2018-02-09T01:17:02.311Z,1017.69
2018-02-09T01:18:02.397Z,1017.70
2018-02-09T01:19:02.348Z,1017.68
2018-02-09T01:20:02.359Z,1017.65
2018-02-09T01:21:02.386Z,1017.64
2018-02-09T01:22:02.395Z,1017.64
2018-02-09T01:23:02.418Z,1017.63
2018-02-09T01:24:02.429Z,1017.63
2018-02-09T01:25:02.443Z,1017.60
2018-02-09T01:26:02.472Z,1017.60
2018-02-09T01:27:02.482Z,1017.57
2018-02-09T01:28:02.517Z,1017.56
2018-02-09T01:29:02.516Z,1017.58
2018-02-09T01:30:02.533Z,1017.56
2018-02-09T01:31:02.547Z,1017.60
2018-02-09T01:32:02.563Z,1017.56
2018-02-09T01:33:02.585Z,1017.54
2018-02-09T01:34:02.602Z,1017.52
2018-02-09T01:35:02.610Z,1017.52
2018-02-09T01:36:02.641Z,1017.51
2018-02-09T01:37:02.659Z,1017.51
2018-02-09T01:38:02.663Z,1017.50
2018-02-09T01:39:02.688Z,1017.51
2018-02-09T01:40:02.708Z,1017.53
2018-02-09T01:41:02.716Z,1017.55
2018-02-09T01:42:02.733Z,1017.53
2018-02-09T01:43:02.750Z,1017.55
2018-02-09T01:44:02.812Z,1017.55
2018-02-09T01:45:02.785Z,1017.53
2018-02-09T01:46:02.798Z,1017.49
2018-02-09T01:47:02.834Z,1017.49
2018-02-09T01:48:02.833Z,1017.47
2018-02-09T01:49:02.849Z,1017.48
2018-02-09T01:50:02.871Z,1017.43
2018-02-09T01:51:02.880Z,1017.40
2018-02-09T01:52:02.904Z,1017.37
2018-02-09T01:53:02.916Z,1017.42
2018-02-09T01:54:02.945Z,1017.38
2018-02-09T01:55:02.957Z,1017.34
2018-02-09T01:56:02.982Z,1017.31
2018-02-09T01:57:02.987Z,1017.34
2018-02-09T01:58:03.003Z,1017.31
2018-02-09T01:59:03.018Z,1017.30
2018-02-09T02:00:03.038Z,1017.30
2018-02-09T02:01:03.050Z,1017.31
2018-02-09T02:02:03.065Z,1017.33
2018-02-09T02:03:03.089Z,1017.33
2018-02-09T02:04:03.100Z,1017.32
2018-02-09T02:05:03.113Z,1017.33
2018-02-09T02:06:03.139Z,1017.31
2018-02-09T02:07:03.164Z,1017.28
2018-02-09T02:08:03.167Z,1017.29
2018-02-09T02:09:03.190Z,1017.28
2018-02-09T02:10:03.205Z,1017.27
2018-02-09T02:11:03.216Z,1017.25
2018-02-09T02:12:03.232Z,1017.26
2018-02-09T02:13:03.256Z,1017.30
2018-02-09T02:14:03.263Z,1017.23
2018-02-09T02:15:03.281Z,1017.23
2018-02-09T02:16:03.305Z,1017.25
2018-02-09T02:17:03.339Z,1017.23
2018-02-09T02:18:03.339Z,1017.26
2018-02-09T02:19:03.347Z,1017.22
2018-02-09T02:20:03.366Z,1017.26
2018-02-09T02:21:03.389Z,1017.26
2018-02-09T02:22:03.405Z,1017.24
2018-02-09T02:23:03.414Z,1017.26
2018-02-09T02:24:03.441Z,1017.22
2018-02-09T02:25:03.448Z,1017.20
2018-02-09T02:26:03.465Z,1017.17
2018-02-09T02:27:03.486Z,1017.15
2018-02-09T02:28:03.502Z,1017.16
2018-02-09T02:29:03.514Z,1017.18
2018-02-09T02:30:03.529Z,1017.17
2018-02-09T02:31:03.560Z,1017.14
2018-02-09T02:32:03.564Z,1017.15
2018-02-09T02:33:03.584Z,1017.17
2018-02-09T02:34:03.606Z,1017.11
2018-02-09T02:35:03.615Z,1017.12
2018-02-09T02:36:03.634Z,1017.07
2018-02-09T02:37:03.650Z,1017.07
2018-02-09T02:38:03.674Z,1017.08
2018-02-09T02:39:03.687Z,1017.08
2018-02-09T02:40:03.699Z,1017.07
2018-02-09T02:41:03.720Z,1017.07
2018-02-09T02:42:03.756Z,1017.08
2018-02-09T02:43:03.748Z,1017.08
2018-02-09T02:44:03.765Z,1017.11
2018-02-09T02:45:03.783Z,1017.06
2018-02-09T02:46:03.802Z,1017.10
2018-02-09T02:47:03.813Z,1017.09
2018-02-09T02:48:03.845Z,1017.02
2018-02-09T02:49:03.859Z,1017.01
2018-02-09T02:50:03.870Z,1017.02
2018-02-09T02:51:03.881Z,1016.99
2018-02-09T02:52:03.907Z,1017.01
2018-02-09T02:53:03.915Z,1016.99
2018-02-09T02:54:03.930Z,1017.00
2018-02-09T02:55:03.957Z,1016.97
2018-02-09T02:56:03.963Z,1016.94
2018-02-09T02:57:03.978Z,1016.94
2018-02-09T02:58:03.998Z,1016.96
2018-02-09T02:59:04.027Z,1016.95
2018-02-09T03:00:04.035Z,1016.96
2018-02-09T03:01:04.045Z,1016.97
2018-02-09T03:02:04.068Z,1016.96
2018-02-09T03:03:04.090Z,1016.96
2018-02-09T03:04:04.097Z,1016.95
2018-02-09T03:05:04.122Z,1016.92
2018-02-09T03:06:04.134Z,1016.91
2018-02-09T03:07:04.145Z,1016.90
2018-02-09T03:08:04.162Z,1016.87
2018-02-09T03:09:04.178Z,1016.87
2018-02-09T03:10:04.208Z,1016.86
2018-02-09T03:11:04.214Z,1016.83
2018-02-09T03:12:04.225Z,1016.83
2018-02-09T03:13:04.256Z,1016.80
2018-02-09T03:14:04.270Z,1016.79
2018-02-09T03:15:04.274Z,1016.81
2018-02-09T03:16:04.294Z,1016.76
2018-02-09T03:17:04.312Z,1016.76
2018-02-09T03:18:04.327Z,1016.72
2018-02-09T03:19:04.346Z,1016.76
2018-02-09T03:20:04.355Z,1016.71
2018-02-09T03:21:04.386Z,1016.71
2018-02-09T03:22:04.393Z,1016.68
2018-02-09T03:23:04.413Z,1016.64
2018-02-09T03:24:04.424Z,1016.68
2018-02-09T03:25:04.449Z,1016.66
2018-02-09T03:26:04.455Z,1016.65
2018-02-09T03:27:04.483Z,1016.67
2018-02-09T03:28:04.492Z,1016.66
2018-02-09T03:29:04.508Z,1016.64
2018-02-09T03:30:04.522Z,1016.64
2018-02-09T03:31:04.540Z,1016.64
2018-02-09T03:32:04.566Z,1016.63
2018-02-09T03:33:04.615Z,1016.62
2018-02-09T03:34:04.590Z,1016.62
2018-02-09T03:35:04.601Z,1016.60
2018-02-09T03:36:04.629Z,1016.59
2018-02-09T03:37:04.648Z,1016.59
2018-02-09T03:38:04.658Z,1016.62
2018-02-09T03:39:04.671Z,1016.61
2018-02-09T03:40:04.684Z,1016.62
2018-02-09T03:41:04.698Z,1016.60
2018-02-09T03:42:05.630Z,1016.63
2018-02-09T03:43:04.757Z,1016.60
2018-02-09T03:44:04.762Z,1016.64
2018-02-09T03:45:04.768Z,1016.62
2018-02-09T03:46:04.809Z,1016.63
2018-02-09T03:47:04.808Z,1016.61
2018-02-09T03:48:04.814Z,1016.63
2018-02-09T03:49:04.844Z,1016.62
2018-02-09T03:50:04.852Z,1016.65
2018-02-09T03:51:04.863Z,1016.61
2018-02-09T03:52:04.880Z,1016.60
2018-02-09T03:53:04.907Z,1016.59
2018-02-09T03:54:04.927Z,1016.63
2018-02-09T03:55:04.937Z,1016.62
2018-02-09T03:56:04.945Z,1016.61
2018-02-09T03:57:04.976Z,1016.63
2018-02-09T03:58:04.978Z,1016.62
2018-02-09T03:59:05.072Z,1016.67
2018-02-09T04:00:05.018Z,1016.64
2018-02-09T04:01:05.034Z,1016.65
2018-02-09T04:02:05.046Z,1016.63
2018-02-09T04:03:05.057Z,1016.65
2018-02-09T04:04:05.073Z,1016.64
2018-02-09T04:05:05.111Z,1016.66
2018-02-09T04:06:05.108Z,1016.65
2018-02-09T04:07:05.121Z,1016.68
2018-02-09T04:08:05.149Z,1016.66
2018-02-09T04:09:05.162Z,1016.63
2018-02-09T04:10:05.176Z,1016.62
2018-02-09T04:11:05.195Z,1016.61
2018-02-09T04:12:05.220Z,1016.58
2018-02-09T04:13:05.223Z,1016.59
2018-02-09T04:14:05.239Z,1016.57
2018-02-09T04:15:05.254Z,1016.57
2018-02-09T04:16:05.291Z,1016.56
2018-02-09T04:17:05.298Z,1016.57
2018-02-09T04:18:05.300Z,1016.55
2018-02-09T04:19:05.317Z,1016.53
2018-02-09T04:20:05.332Z,1016.52
2018-02-09T04:21:05.358Z,1016.53
2018-02-09T04:22:05.375Z,1016.55
2018-02-09T04:23:05.384Z,1016.51
2018-02-09T04:24:05.400Z,1016.51
2018-02-09T04:25:05.417Z,1016.50
2018-02-09T04:26:05.438Z,1016.49
2018-02-09T04:27:05.454Z,1016.46
2018-02-09T04:28:05.470Z,1016.49
2018-02-09T04:29:05.486Z,1016.50
2018-02-09T04:30:05.495Z,1016.47
2018-02-09T04:31:05.513Z,1016.54
2018-02-09T04:32:05.534Z,1016.51
2018-02-09T04:33:05.554Z,1016.50
2018-02-09T04:34:05.564Z,1016.46
2018-02-09T04:35:05.580Z,1016.51
2018-02-09T04:36:05.601Z,1016.49
2018-02-09T04:37:05.610Z,1016.51
2018-02-09T04:38:05.627Z,1016.49
2018-02-09T04:39:05.652Z,1016.51
2018-02-09T04:40:05.662Z,1016.52
2018-02-09T04:41:05.685Z,1016.49
2018-02-09T04:42:05.694Z,1016.45
2018-02-09T04:43:05.716Z,1016.47
2018-02-09T04:44:05.729Z,1016.48
2018-02-09T04:45:05.748Z,1016.51
2018-02-09T04:46:05.758Z,1016.50
2018-02-09T04:47:05.772Z,1016.50
2018-02-09T04:48:05.788Z,1016.50
2018-02-09T04:49:05.805Z,1016.50
2018-02-09T04:50:05.823Z,1016.50
2018-02-09T04:51:05.838Z,1016.49
2018-02-09T04:52:05.856Z,1016.48
2018-02-09T04:53:05.869Z,1016.46
2018-02-09T04:54:05.886Z,1016.45
2018-02-09T04:55:05.909Z,1016.44
2018-02-09T04:56:05.916Z,1016.45
2018-02-09T04:57:05.987Z,1016.41
2018-02-09T04:58:05.948Z,1016.47
2018-02-09T04:59:05.967Z,1016.45
2018-02-09T05:00:05.987Z,1016.44
2018-02-09T05:01:06.001Z,1016.42
2018-02-09T05:02:06.019Z,1016.44
2018-02-09T05:03:06.030Z,1016.43
2018-02-09T05:04:06.048Z,1016.43
2018-02-09T05:05:06.064Z,1016.43
2018-02-09T05:06:06.085Z,1016.46
2018-02-09T05:07:06.092Z,1016.45
2018-02-09T05:08:06.124Z,1016.45
2018-02-09T05:09:06.125Z,1016.42
2018-02-09T05:10:06.140Z,1016.43
2018-02-09T05:11:06.169Z,1016.43
2018-02-09T05:12:06.174Z,1016.44
2018-02-09T05:13:06.189Z,1016.45
2018-02-09T05:14:06.206Z,1016.45
2018-02-09T05:15:06.224Z,1016.47
2018-02-09T05:16:06.241Z,1016.43
2018-02-09T05:17:06.263Z,1016.41
2018-02-09T05:18:06.272Z,1016.47
2018-02-09T05:19:06.290Z,1016.42
2018-02-09T05:20:06.299Z,1016.42
2018-02-09T05:21:06.317Z,1016.42
2018-02-09T05:22:06.342Z,1016.40
2018-02-09T05:23:06.353Z,1016.37
2018-02-09T05:24:06.366Z,1016.36
2018-02-09T05:25:06.387Z,1016.38
2018-02-09T05:26:06.404Z,1016.41
2018-02-09T05:27:06.414Z,1016.37
2018-02-09T05:28:06.433Z,1016.39
2018-02-09T05:29:06.451Z,1016.34
2018-02-09T05:30:06.463Z,1016.39
2018-02-09T05:31:06.478Z,1016.36
2018-02-09T05:32:06.500Z,1016.36
2018-02-09T05:33:06.509Z,1016.33
2018-02-09T05:34:06.532Z,1016.31
2018-02-09T05:35:06.537Z,1016.32
2018-02-09T05:36:07.117Z,1016.30
2018-02-09T05:37:06.583Z,1016.34
2018-02-09T05:38:06.610Z,1016.34
2018-02-09T05:39:06.608Z,1016.32
2018-02-09T05:40:06.621Z,1016.30
2018-02-09T05:41:06.641Z,1016.28
2018-02-09T05:42:06.654Z,1016.29
2018-02-09T05:43:06.670Z,1016.31
2018-02-09T05:44:06.686Z,1016.33
2018-02-09T05:45:06.705Z,1016.29
2018-02-09T05:46:06.721Z,1016.32
2018-02-09T05:47:06.734Z,1016.37
2018-02-09T05:48:06.759Z,1016.28
2018-02-09T05:49:06.775Z,1016.31
2018-02-09T05:50:06.786Z,1016.32
2018-02-09T05:51:06.813Z,1016.27
2018-02-09T05:52:06.811Z,1016.30
2018-02-09T05:53:06.840Z,1016.25
2018-02-09T05:54:06.847Z,1016.28
2018-02-09T05:55:06.874Z,1016.23
2018-02-09T05:56:06.886Z,1016.21
2018-02-09T05:57:06.899Z,1016.21
2018-02-09T05:58:06.921Z,1016.23
2018-02-09T05:59:06.929Z,1016.18
2018-02-09T06:00:06.950Z,1016.13
2018-02-09T06:01:06.959Z,1016.17
2018-02-09T06:02:07.001Z,1016.13
2018-02-09T06:03:06.986Z,1016.19
2018-02-09T06:04:07.012Z,1016.12
2018-02-09T06:05:07.029Z,1016.11
2018-02-09T06:06:07.060Z,1016.11
2018-02-09T06:07:07.053Z,1016.09
2018-02-09T06:08:07.076Z,1016.10
2018-02-09T06:09:07.089Z,1016.12
2018-02-09T06:10:07.104Z,1016.10
2018-02-09T06:11:07.126Z,1016.08
2018-02-09T06:12:07.135Z,1016.04
2018-02-09T06:13:07.154Z,1016.11
2018-02-09T06:14:07.167Z,1016.09
2018-02-09T06:15:07.191Z,1016.08
2018-02-09T06:16:07.198Z,1016.05
2018-02-09T06:17:07.337Z,1016.06
2018-02-09T06:18:07.237Z,1016.06
2018-02-09T06:19:07.290Z,1016.08
2018-02-09T06:20:07.266Z,1016.02
2018-02-09T06:21:07.288Z,1016.02
2018-02-09T06:22:07.304Z,1016.04
2018-02-09T06:23:07.312Z,1016.02
2018-02-09T06:24:07.330Z,1016.05
2018-02-09T06:25:07.346Z,1016.08
2018-02-09T06:26:07.369Z,1016.05
2018-02-09T06:27:07.377Z,1016.04
2018-02-09T06:28:07.394Z,1016.02
2018-02-09T06:29:07.417Z,1016.05
2018-02-09T06:30:07.427Z,1016.03
2018-02-09T06:31:07.446Z,1016.06
2018-02-09T06:32:07.454Z,1016.10
2018-02-09T06:33:07.485Z,1016.06
2018-02-09T06:34:07.494Z,1016.06
2018-02-09T06:35:07.503Z,1016.08
2018-02-09T06:37:07.537Z,1016.06
2018-02-09T06:38:07.558Z,1016.02
2018-02-09T06:39:07.569Z,1016.06
2018-02-09T06:40:07.594Z,1016.05
2018-02-09T06:41:07.622Z,1016.04
2018-02-09T06:42:07.620Z,1015.99
2018-02-09T06:43:07.636Z,1016.02
2018-02-09T06:44:07.651Z,1016.05
2018-02-09T06:45:07.668Z,1016.07
2018-02-09T06:46:07.685Z,1016.06
2018-02-09T06:47:07.708Z,1016.05
2018-02-09T06:48:07.713Z,1016.10
2018-02-09T06:49:07.738Z,1016.09
2018-02-09T06:50:07.745Z,1016.08
2018-02-09T06:51:07.761Z,1016.10
2018-02-09T06:52:07.787Z,1016.08
2018-02-09T06:53:07.796Z,1016.09
2018-02-09T06:54:07.807Z,1016.11
2018-02-09T06:55:07.835Z,1016.10
2018-02-09T06:56:07.844Z,1016.11
2018-02-09T06:57:07.864Z,1016.04
2018-02-09T06:58:07.883Z,1016.06
2018-02-09T06:59:07.891Z,1016.07
2018-02-09T07:00:07.927Z,1016.10
2018-02-09T07:01:07.926Z,1016.09
2018-02-09T07:02:07.941Z,1016.11
2018-02-09T07:03:07.957Z,1016.10
2018-02-09T07:04:07.977Z,1016.11
2018-02-09T07:05:07.987Z,1016.11
2018-02-09T07:06:08.005Z,1016.06
2018-02-09T07:07:08.021Z,1016.05
2018-02-09T07:08:08.041Z,1016.08
2018-02-09T07:09:08.058Z,1016.09
2018-02-09T07:10:08.074Z,1016.07
2018-02-09T07:11:08.090Z,1016.04
2018-02-09T07:12:08.106Z,1016.04
2018-02-09T07:13:08.121Z,1016.07
2018-02-09T07:14:08.144Z,1016.06
2018-02-09T07:15:08.155Z,1016.07
2018-02-09T07:16:08.169Z,1016.09
2018-02-09T07:17:08.192Z,1016.11
2018-02-09T07:18:08.208Z,1016.13
2018-02-09T07:19:08.215Z,1016.11
2018-02-09T07:20:08.240Z,1016.13
2018-02-09T07:21:08.251Z,1016.17
2018-02-09T07:22:08.265Z,1016.17
2018-02-09T07:23:08.286Z,1016.19
2018-02-09T07:24:08.295Z,1016.18
2018-02-09T07:25:08.315Z,1016.18
2018-02-09T07:26:08.330Z,1016.17
2018-02-09T07:27:08.346Z,1016.11
2018-02-09T07:28:08.372Z,1016.08
2018-02-09T07:29:08.381Z,1016.14
2018-02-09T07:30:08.412Z,1016.12
2018-02-09T07:31:08.419Z,1016.13
2018-02-09T07:32:08.466Z,1016.11
2018-02-09T07:33:08.443Z,1016.14
2018-02-09T07:34:08.471Z,1016.11
2018-02-09T07:35:08.486Z,1016.09
2018-02-09T07:36:08.503Z,1016.08
2018-02-09T07:37:08.521Z,1016.01
2018-02-09T07:38:08.528Z,1016.05
2018-02-09T07:39:08.546Z,1016.00
2018-02-09T07:40:08.562Z,1016.02
2018-02-09T07:41:08.637Z,1016.01
2018-02-09T07:42:08.596Z,1016.01
2018-02-09T07:43:08.625Z,1016.02
2018-02-09T07:44:08.627Z,1016.00
2018-02-09T07:45:08.647Z,1015.95
2018-02-09T07:46:08.662Z,1016.00
2018-02-09T07:47:08.675Z,1015.99
2018-02-09T07:48:08.693Z,1016.00
2018-02-09T07:49:08.710Z,1016.02
2018-02-09T07:50:08.724Z,1016.00
2018-02-09T07:51:08.741Z,1015.94
2018-02-09T07:52:08.765Z,1015.94
2018-02-09T07:53:08.775Z,1015.96
2018-02-09T07:54:09.606Z,1015.97
2018-02-09T07:55:08.811Z,1015.95
2018-02-09T07:56:08.839Z,1015.93
2018-02-09T07:57:08.849Z,1015.94
2018-02-09T07:58:08.859Z,1015.98
2018-02-09T07:59:08.875Z,1015.94
2018-02-09T08:00:08.891Z,1015.94
2018-02-09T08:01:08.908Z,1015.97
2018-02-09T08:02:08.926Z,1016.01
2018-02-09T08:03:08.936Z,1015.94
2018-02-09T08:04:08.958Z,1015.93
2018-02-09T08:05:08.973Z,1015.90
2018-02-09T08:06:08.991Z,1015.92
2018-02-09T08:07:09.025Z,1015.94
2018-02-09T08:08:09.032Z,1015.92
2018-02-09T08:09:09.070Z,1015.91
2018-02-09T08:10:09.063Z,1015.89
2018-02-09T08:11:09.077Z,1015.87
2018-02-09T08:12:09.092Z,1015.83
2018-02-09T08:13:09.121Z,1015.84
2018-02-09T08:14:09.132Z,1015.85
2018-02-09T08:15:09.148Z,1015.88
2018-02-09T08:16:09.159Z,1015.88
2018-02-09T08:17:09.190Z,1015.85
2018-02-09T08:18:09.204Z,1015.86
2018-02-09T08:19:09.213Z,1015.87
2018-02-09T08:20:09.381Z,1015.83
2018-02-09T08:21:09.247Z,1015.85
2018-02-09T08:22:09.266Z,1015.82
2018-02-09T08:23:09.274Z,1015.82
2018-02-09T08:24:09.293Z,1015.85
2018-02-09T08:25:09.312Z,1015.87
2018-02-09T08:26:09.324Z,1015.84
2018-02-09T08:27:09.343Z,1015.83
2018-02-09T08:28:09.375Z,1015.83
2018-02-09T08:29:09.377Z,1015.80
2018-02-09T08:30:09.418Z,1015.87
2018-02-09T08:31:09.419Z,1015.84
2018-02-09T08:32:09.431Z,1015.87
2018-02-09T08:33:09.441Z,1015.88
2018-02-09T08:34:09.462Z,1015.91
2018-02-09T08:35:09.479Z,1015.96
2018-02-09T08:36:09.497Z,1015.94
2018-02-09T08:37:09.513Z,1015.91
2018-02-09T08:38:09.545Z,1015.91
2018-02-09T08:39:09.547Z,1015.95
2018-02-09T08:40:09.570Z,1016.00
2018-02-09T08:41:09.590Z,1015.95
2018-02-09T08:42:09.601Z,1015.92
2018-02-09T08:43:09.623Z,1015.82
2018-02-09T08:44:09.635Z,1015.83
2018-02-09T08:45:09.665Z,1015.83
2018-02-09T08:46:09.669Z,1015.85
2018-02-09T08:47:09.684Z,1015.83
2018-02-09T08:48:09.711Z,1015.82
2018-02-09T08:49:09.717Z,1015.81
2018-02-09T08:50:09.734Z,1015.82
2018-02-09T08:51:09.764Z,1015.78
2018-02-09T08:52:09.777Z,1015.80
2018-02-09T08:53:09.787Z,1015.79
2018-02-09T08:54:09.808Z,1015.80
2018-02-09T08:55:09.829Z,1015.81
2018-02-09T08:56:09.839Z,1015.77
2018-02-09T08:57:09.853Z,1015.77
2018-02-09T08:58:09.871Z,1015.76
2018-02-09T08:59:09.890Z,1015.72
2018-02-09T09:00:09.909Z,1015.73
2018-02-09T09:01:09.934Z,1015.71
2018-02-09T09:02:09.948Z,1015.71
2018-02-09T09:03:09.959Z,1015.68
2018-02-09T09:04:09.977Z,1015.70
2018-02-09T09:05:10.002Z,1015.67
2018-02-09T09:06:10.019Z,1015.67
2018-02-09T09:07:10.043Z,1015.70
2018-02-09T09:08:10.053Z,1015.72
2018-02-09T09:09:10.066Z,1015.68
2018-02-09T09:10:10.083Z,1015.69
2018-02-09T09:11:10.104Z,1015.67
2018-02-09T09:12:10.119Z,1015.67
2018-02-09T09:13:10.152Z,1015.67
2018-02-09T09:14:10.153Z,1015.64
2018-02-09T09:15:10.174Z,1015.64
2018-02-09T09:16:10.190Z,1015.66
2018-02-09T09:17:10.216Z,1015.67
2018-02-09T09:18:10.232Z,1015.66
2018-02-09T09:19:10.243Z,1015.63
2018-02-09T09:20:10.259Z,1015.65
2018-02-09T09:21:10.277Z,1015.66
2018-02-09T09:22:10.305Z,1015.66
2018-02-09T09:23:10.323Z,1015.64
2018-02-09T09:24:10.328Z,1015.61
2018-02-09T09:25:10.356Z,1015.58
2018-02-09T09:26:10.364Z,1015.60
2018-02-09T09:27:10.388Z,1015.58
2018-02-09T09:28:10.459Z,1015.56
2018-02-09T09:29:10.422Z,1015.55
2018-02-09T09:30:10.445Z,1015.49
2018-02-09T09:31:10.459Z,1015.50
2018-02-09T09:32:10.479Z,1015.53
2018-02-09T09:33:10.490Z,1015.50
2018-02-09T09:34:10.512Z,1015.45
2018-02-09T09:35:10.531Z,1015.48
2018-02-09T09:36:10.559Z,1015.47
2018-02-09T09:37:10.565Z,1015.51
2018-02-09T09:38:10.580Z,1015.49
2018-02-09T09:39:10.604Z,1015.44
2018-02-09T09:40:10.620Z,1015.46
2018-02-09T09:41:10.643Z,1015.44
2018-02-09T09:42:10.764Z,1015.41
2018-02-09T09:43:10.679Z,1015.44
2018-02-09T09:44:10.695Z,1015.44
2018-02-09T09:45:10.705Z,1015.43
2018-02-09T09:46:10.725Z,1015.41
2018-02-09T09:47:10.745Z,1015.41
2018-02-09T09:48:10.758Z,1015.34
2018-02-09T09:49:10.785Z,1015.39
2018-02-09T09:50:10.806Z,1015.39
2018-02-09T09:51:10.816Z,1015.39
2018-02-09T09:52:10.830Z,1015.40
2018-02-09T09:53:10.846Z,1015.40
2018-02-09T09:54:10.870Z,1015.38
2018-02-09T09:55:10.894Z,1015.37
2018-02-09T09:56:10.901Z,1015.37
2018-02-09T09:57:10.934Z,1015.40
2018-02-09T09:58:10.940Z,1015.34
2018-02-09T09:59:10.958Z,1015.36
2018-02-09T10:00:10.981Z,1015.33
2018-02-09T10:01:10.994Z,1015.34
2018-02-09T10:02:11.025Z,1015.35
2018-02-09T10:03:11.032Z,1015.32
2018-02-09T10:04:11.052Z,1015.28
2018-02-09T10:05:11.075Z,1015.27
2018-02-09T10:06:11.085Z,1015.27
2018-02-09T10:07:11.113Z,1015.31
2018-02-09T10:08:11.237Z,1015.25
2018-02-09T10:09:11.159Z,1015.25
2018-02-09T10:10:11.217Z,1015.24
2018-02-09T10:11:11.172Z,1015.25
2018-02-09T10:12:11.207Z,1015.24
2018-02-09T10:13:11.215Z,1015.21
2018-02-09T10:14:11.234Z,1015.19
2018-02-09T10:15:11.262Z,1015.21
2018-02-09T10:16:11.278Z,1015.17
2018-02-09T10:17:11.290Z,1015.22
2018-02-09T10:18:11.325Z,1015.22
2018-02-09T10:19:11.321Z,1015.20
2018-02-09T10:20:11.349Z,1015.19
2018-02-09T10:21:11.374Z,1015.19
2018-02-09T10:22:11.386Z,1015.19
2018-02-09T10:23:11.403Z,1015.20
2018-02-09T10:24:11.423Z,1015.21
2018-02-09T10:25:11.435Z,1015.20
2018-02-09T10:26:11.467Z,1015.23
2018-02-09T10:27:11.474Z,1015.23
2018-02-09T10:28:11.496Z,1015.22
2018-02-09T10:29:11.506Z,1015.23
2018-02-09T10:30:11.550Z,1015.26
2018-02-09T10:31:11.550Z,1015.22
2018-02-09T10:32:11.579Z,1015.27
2018-02-09T10:33:11.598Z,1015.22
2018-02-09T10:34:11.612Z,1015.23
2018-02-09T10:35:11.624Z,1015.22
2018-02-09T10:36:11.644Z,1015.24
2018-02-09T10:37:11.664Z,1015.27
2018-02-09T10:38:11.709Z,1015.25
2018-02-09T10:39:11.708Z,1015.23
2018-02-09T10:40:11.735Z,1015.26
2018-02-09T10:41:11.756Z,1015.27
2018-02-09T10:42:11.765Z,1015.25
2018-02-09T10:43:11.791Z,1015.21
2018-02-09T10:44:11.824Z,1015.21
2018-02-09T10:45:11.856Z,1015.17
2018-02-09T10:46:11.856Z,1015.16
2018-02-09T10:47:11.881Z,1015.20
2018-02-09T10:48:11.909Z,1015.20
2018-02-09T10:49:11.935Z,1015.17
2018-02-09T10:50:11.961Z,1015.20
2018-02-09T10:51:11.983Z,1015.20
2018-02-09T10:52:12.020Z,1015.19
2018-02-09T10:53:12.027Z,1015.25
2018-02-09T10:54:12.055Z,1015.21
2018-02-09T10:55:12.077Z,1015.15
2018-02-09T10:56:12.098Z,1015.20
2018-02-09T10:57:12.134Z,1015.20
2018-02-09T10:58:12.147Z,1015.18
2018-02-09T10:59:12.171Z,1015.15
2018-02-09T11:00:12.198Z,1015.15
2018-02-09T11:01:12.224Z,1015.16
2018-02-09T11:02:12.248Z,1015.14
2018-02-09T11:03:12.283Z,1015.18
2018-02-09T11:04:12.301Z,1015.15
2018-02-09T11:05:12.337Z,1015.14
2018-02-09T11:06:12.364Z,1015.13
2018-02-09T11:07:12.372Z,1015.14
2018-02-09T11:08:12.402Z,1015.16
2018-02-09T11:09:12.425Z,1015.13
2018-02-09T11:10:12.450Z,1015.18
2018-02-09T11:11:12.472Z,1015.16
2018-02-09T11:12:12.562Z,1015.13
2018-02-09T11:13:12.526Z,1015.13
2018-02-09T11:14:12.548Z,1015.15
2018-02-09T11:15:12.580Z,1015.14
2018-02-09T11:16:12.603Z,1015.08
2018-02-09T11:17:12.627Z,1015.10
2018-02-09T11:18:12.650Z,1015.04
2018-02-09T11:19:12.679Z,1015.03
2018-02-09T11:20:12.712Z,1015.04
2018-02-09T11:21:12.728Z,1014.99
2018-02-09T11:22:12.757Z,1015.03
2018-02-09T11:23:12.799Z,1014.97
2018-02-09T11:24:12.806Z,1014.99
2018-02-09T11:25:12.841Z,1014.99
2018-02-09T11:26:12.856Z,1014.99
2018-02-09T11:27:12.871Z,1015.02
2018-02-09T11:28:12.901Z,1014.96
2018-02-09T11:29:12.934Z,1015.01
2018-02-09T11:30:12.949Z,1015.02
2018-02-09T11:31:12.992Z,1015.00
2018-02-09T11:32:12.999Z,1015.00
2018-02-09T11:33:13.067Z,1014.97
2018-02-09T11:34:13.052Z,1014.95
2018-02-09T11:35:13.069Z,1014.93
2018-02-09T11:36:13.089Z,1014.89
2018-02-09T11:37:13.120Z,1014.91
2018-02-09T11:38:13.172Z,1014.83
2018-02-09T11:39:13.159Z,1014.86
2018-02-09T11:40:13.210Z,1014.85
2018-02-09T11:41:13.214Z,1014.80
2018-02-09T11:42:13.348Z,1014.84
2018-02-09T11:43:13.255Z,1014.81
2018-02-09T11:44:13.284Z,1014.81
2018-02-09T11:45:13.297Z,1014.81
2018-02-09T11:46:13.322Z,1014.82
2018-02-09T11:47:13.340Z,1014.80
2018-02-09T11:48:13.360Z,1014.76
2018-02-09T11:49:13.384Z,1014.79
2018-02-09T11:50:13.408Z,1014.74
2018-02-09T11:51:13.427Z,1014.75
2018-02-09T11:52:13.453Z,1014.73
2018-02-09T11:53:13.468Z,1014.72
2018-02-09T11:54:13.502Z,1014.70
2018-02-09T11:55:13.612Z,1014.72
2018-02-09T11:56:13.536Z,1014.70
2018-02-09T11:57:13.581Z,1014.70
2018-02-09T11:58:13.578Z,1014.69
2018-02-09T11:59:13.607Z,1014.65
2018-02-09T12:00:13.622Z,1014.63
2018-02-09T12:01:13.660Z,1014.64
2018-02-09T12:02:13.662Z,1014.61
2018-02-09T12:03:13.699Z,1014.61
2018-02-09T12:04:13.705Z,1014.61
2018-02-09T12:05:13.728Z,1014.60
2018-02-09T12:06:13.766Z,1014.57